createdAt,value
2022-12-11T00:00:20.982Z,100376.63
2022-12-11T00:10:25.605Z,100375.84
2022-12-11T00:20:28.623Z,100373.81
2022-12-11T00:30:33.003Z,100378.94
2022-12-11T00:40:36.466Z,100364.66
2022-12-11T00:50:41.845Z,100362.28
2022-12-11T01:00:44.819Z,100374.09
2022-12-11T01:10:49.202Z,100368.94
2022-12-11T01:20:52.567Z,100365.66
2022-12-11T01:30:56.753Z,100354.53
2022-12-11T01:41:00.309Z,100357.28
2022-12-11T01:51:06.893Z,100351.44
2022-12-11T02:01:15.171Z,100355.69
2022-12-11T02:11:25.866Z,100354.88
2022-12-11T02:21:35.610Z,100336.16
2022-12-11T02:31:43.997Z,100337.75
2022-12-11T02:41:51.426Z,100342.16
2022-12-11T02:51:57.747Z,100330.34
2022-12-11T03:02:01.229Z,100325.22
2022-12-11T03:12:06.075Z,100325.22
2022-12-11T03:22:13.970Z,100324.97
2022-12-11T03:32:23.292Z,100321.06
2022-12-11T03:42:28.142Z,100324.28
2022-12-11T03:52:33.581Z,100336.16
2022-12-11T04:02:36.739Z,100322.59
2022-12-11T04:12:41.143Z,100309.16
2022-12-11T04:23:01.692Z,100303.19
2022-12-11T04:33:06.025Z,100307.56
2022-12-11T04:43:09.013Z,100307.53
2022-12-11T04:53:13.433Z,100299.88
2022-12-11T05:03:16.544Z,100299.13
2022-12-11T05:13:20.983Z,100282.25
2022-12-11T05:23:24.107Z,100271.13
2022-12-11T05:33:28.902Z,100271.06
2022-12-11T05:43:33.901Z,100270.34
2022-12-11T05:53:39.276Z,100270.38
2022-12-11T06:03:42.734Z,100283.97
2022-12-11T06:13:47.001Z,100277.94
2022-12-11T06:23:51.717Z,100266.97
2022-12-11T06:33:56.369Z,100260.22
2022-12-11T06:43:59.284Z,100260.22
2022-12-11T06:54:03.641Z,100261.03
2022-12-11T07:04:06.780Z,100266.19
2022-12-11T07:14:13.052Z,100276.28
2022-12-11T07:24:16.218Z,100287.16
2022-12-11T07:34:20.796Z,100276.13
2022-12-11T07:44:23.665Z,100272.03
2022-12-11T07:54:28.000Z,100278.66
2022-12-11T08:04:30.879Z,100282.88
2022-12-11T08:14:35.402Z,100275.22
2022-12-11T08:24:38.338Z,100267.56
2022-12-11T08:34:42.569Z,100262.66
2022-12-11T08:44:46.087Z,100273.66
2022-12-11T08:54:50.409Z,100276.25
2022-12-11T09:04:54.984Z,100279.38
2022-12-11T09:14:59.308Z,100265.81
2022-12-11T09:25:02.395Z,100269.56
2022-12-11T09:35:07.945Z,100279.34
2022-12-11T09:45:15.169Z,100272.69
2022-12-11T09:55:24.280Z,100266.78
2022-12-11T10:05:34.884Z,100266.13
2022-12-11T10:15:54.792Z,100251.72
2022-12-11T10:26:04.073Z,100245.69
2022-12-11T10:36:09.945Z,100239.09
2022-12-11T10:46:18.627Z,100226.28
2022-12-11T10:56:35.162Z,100219.72
2022-12-11T11:06:39.299Z,100207.88
2022-12-11T11:16:45.826Z,100202.00
2022-12-11T11:27:12.145Z,100185.94
2022-12-11T11:37:27.051Z,100174.88
2022-12-11T11:47:35.698Z,100175.88
2022-12-11T11:57:44.812Z,100178.38
2022-12-11T12:07:56.082Z,100168.19
2022-12-11T12:18:08.937Z,100176.59
2022-12-11T12:28:23.842Z,100174.97
2022-12-11T12:38:35.582Z,100157.19
2022-12-11T12:48:40.026Z,100156.34
2022-12-11T12:58:46.455Z,100165.63
2022-12-11T13:08:52.718Z,100149.63
2022-12-11T13:18:57.840Z,100153.84
2022-12-11T13:29:00.981Z,100136.91
2022-12-11T13:39:11.152Z,100158.09
2022-12-11T13:49:22.948Z,100158.06
2022-12-11T13:59:30.044Z,100158.91
2022-12-11T14:09:33.149Z,100164.00
2022-12-11T14:19:38.221Z,100165.69
2022-12-11T14:29:41.107Z,100169.91
2022-12-11T14:39:59.353Z,100180.09
2022-12-11T14:50:07.525Z,100177.53
2022-12-11T15:00:24.404Z,100191.91
2022-12-11T15:10:41.147Z,100183.44
2022-12-11T15:20:45.535Z,100196.19
2022-12-11T15:30:57.762Z,100197.03
2022-12-11T15:41:03.524Z,100194.47
2022-12-11T15:51:07.390Z,100198.72
2022-12-11T16:01:12.324Z,100203.78
2022-12-11T16:11:15.469Z,100198.72
2022-12-11T16:21:21.769Z,100198.63
2022-12-11T16:31:25.159Z,100196.09
2022-12-11T16:41:29.603Z,100192.69
2022-12-11T16:51:32.592Z,100193.56
2022-12-11T17:01:36.991Z,100185.97
2022-12-11T17:11:39.947Z,100185.97
2022-12-11T17:21:51.153Z,100191.91
2022-12-11T17:31:54.719Z,100189.31
2022-12-11T17:42:01.940Z,100184.25
2022-12-11T17:52:05.286Z,100180.00
2022-12-11T18:02:10.716Z,100179.19
2022-12-11T18:12:13.917Z,100183.41
2022-12-11T18:22:18.324Z,100191.88
2022-12-11T18:32:21.311Z,100190.19
2022-12-11T18:42:33.837Z,100187.66
2022-12-11T18:52:37.134Z,100192.75
2022-12-11T19:14:02.333Z,100194.38
2022-12-11T19:24:08.870Z,100188.44
2022-12-11T19:34:12.010Z,100190.97
2022-12-11T19:44:16.808Z,100190.97
2022-12-11T19:54:20.037Z,100193.50
2022-12-11T20:04:24.395Z,100185.91
2022-12-11T20:14:29.141Z,100190.09
2022-12-11T20:24:34.438Z,100186.72
2022-12-11T20:34:37.275Z,100186.72
2022-12-11T20:44:47.283Z,100178.22
2022-12-11T20:54:52.168Z,100182.38
2022-12-11T21:04:56.782Z,100175.63
2022-12-11T21:15:00.008Z,100176.50
2022-12-11T21:25:05.290Z,100185.81
2022-12-11T21:35:09.870Z,100185.78
2022-12-11T21:45:58.750Z,100188.28
2022-12-11T21:55:41.171Z,100188.25
2022-12-11T22:05:48.965Z,100190.03
2022-12-11T22:15:52.490Z,100209.44
2022-12-11T22:25:57.079Z,100211.97
2022-12-11T22:36:01.157Z,100209.50
2022-12-11T22:46:05.495Z,100221.09
2022-12-11T22:56:10.334Z,100225.38
2022-12-11T23:06:16.520Z,100225.31
2022-12-11T23:16:19.590Z,100232.19
2022-12-11T23:26:24.556Z,100231.28
2022-12-11T23:36:29.005Z,100220.31
2022-12-11T23:46:34.631Z,100221.91
2022-12-11T23:56:38.105Z,100230.50
